createdAt,value
2023-03-19T00:00:53.872Z,26.63
2023-03-19T00:03:22.233Z,22.70
2023-03-19T00:05:53.809Z,24.83
2023-03-19T00:08:23.719Z,25.08
2023-03-19T00:10:52.268Z,25.60
2023-03-19T00:13:21.013Z,23.42
2023-03-19T00:15:49.023Z,26.52
2023-03-19T00:18:17.133Z,23.42
2023-03-19T00:20:44.937Z,23.77
2023-03-19T00:23:13.582Z,25.95
2023-03-19T00:25:42.240Z,28.95
2023-03-19T00:28:10.210Z,27.33
2023-03-19T00:30:38.329Z,24.08
2023-03-19T00:33:06.782Z,27.63
2023-03-19T00:35:34.751Z,23.98
2023-03-19T00:38:03.012Z,26.15
2023-03-19T00:40:33.605Z,27.25
2023-03-19T00:43:01.740Z,27.52
2023-03-19T00:45:30.996Z,35.35
2023-03-19T00:47:59.916Z,29.65
2023-03-19T00:50:27.943Z,35.78
2023-03-19T00:52:55.824Z,27.35
2023-03-19T00:55:25.725Z,33.45
2023-03-19T00:57:53.594Z,27.85
2023-03-19T01:00:22.610Z,31.38
2023-03-19T01:02:50.674Z,31.90
2023-03-19T01:05:18.889Z,30.20
2023-03-19T01:07:46.933Z,31.10
2023-03-19T01:10:22.195Z,39.72
2023-03-19T01:12:51.530Z,31.35
2023-03-19T01:15:19.967Z,30.67
2023-03-19T01:17:47.948Z,28.63
2023-03-19T01:20:18.785Z,32.05
2023-03-19T01:22:47.379Z,32.92
2023-03-19T01:25:14.958Z,35.75
2023-03-19T01:27:52.424Z,33.42
2023-03-19T01:30:21.786Z,32.10
2023-03-19T01:33:08.299Z,36.22
2023-03-19T01:36:02.584Z,37.10
2023-03-19T01:38:36.767Z,38.15
2023-03-19T01:41:07.978Z,41.55
2023-03-19T01:43:36.700Z,40.90
2023-03-19T01:46:38.187Z,37.03
2023-03-19T01:49:20.135Z,44.55
2023-03-19T01:51:54.566Z,40.67
2023-03-19T01:54:49.260Z,36.60
2023-03-19T01:57:36.802Z,39.35
2023-03-19T02:00:12.571Z,41.28
2023-03-19T02:02:53.763Z,41.88
2023-03-19T02:05:57.872Z,44.20
2023-03-19T02:08:26.079Z,44.05
2023-03-19T02:10:56.149Z,47.03
2023-03-19T02:13:24.748Z,42.00
2023-03-19T02:15:53.766Z,44.70
2023-03-19T02:18:24.595Z,35.90
2023-03-19T02:21:10.338Z,42.10
2023-03-19T02:24:02.873Z,43.10
2023-03-19T02:26:58.010Z,41.72
2023-03-19T02:29:26.598Z,53.13
2023-03-19T02:31:54.925Z,39.10
2023-03-19T02:34:22.760Z,38.42
2023-03-19T02:37:07.981Z,40.38
2023-03-19T02:39:48.682Z,42.08
2023-03-19T02:42:19.247Z,44.40
2023-03-19T02:44:47.844Z,39.88
2023-03-19T02:47:16.344Z,38.40
2023-03-19T02:49:46.166Z,39.15
2023-03-19T02:52:14.001Z,37.70
2023-03-19T02:54:42.175Z,38.38
2023-03-19T02:57:09.821Z,36.97
2023-03-19T02:59:39.160Z,37.45
2023-03-19T03:02:08.419Z,38.95
2023-03-19T03:04:37.433Z,38.03
2023-03-19T03:07:06.284Z,37.45
2023-03-19T03:09:34.559Z,37.95
2023-03-19T03:12:03.350Z,38.25
2023-03-19T03:14:31.731Z,33.47
2023-03-19T03:17:00.510Z,37.72
2023-03-19T03:19:28.172Z,35.95
2023-03-19T03:21:56.506Z,37.20
2023-03-19T03:24:24.600Z,37.25
2023-03-19T03:26:52.286Z,37.17
2023-03-19T03:29:21.622Z,37.15
2023-03-19T03:31:50.518Z,34.97
2023-03-19T03:34:18.325Z,34.15
2023-03-19T03:36:49.632Z,31.73
2023-03-19T03:39:19.167Z,32.10
2023-03-19T03:41:46.812Z,30.80
2023-03-19T03:44:14.456Z,30.73
2023-03-19T03:46:43.589Z,31.25
2023-03-19T03:49:11.787Z,30.20
2023-03-19T03:51:39.843Z,32.10
2023-03-19T03:54:08.244Z,32.63
2023-03-19T03:56:36.519Z,36.40
2023-03-19T03:59:04.088Z,33.83
2023-03-19T04:01:31.774Z,30.30
2023-03-19T04:04:00.136Z,32.55
2023-03-19T04:06:29.390Z,35.05
2023-03-19T04:09:27.257Z,37.10
2023-03-19T04:11:55.010Z,33.20
2023-03-19T04:14:23.223Z,38.90
2023-03-19T04:16:51.298Z,34.58
2023-03-19T04:19:20.379Z,32.63
2023-03-19T04:21:48.824Z,40.33
2023-03-19T04:24:17.257Z,47.33
2023-03-19T04:26:47.206Z,43.38
2023-03-19T04:29:15.722Z,44.88
2023-03-19T04:31:45.551Z,45.55
2023-03-19T04:34:13.089Z,45.25
2023-03-19T04:36:41.464Z,45.13
2023-03-19T04:39:10.115Z,41.80
2023-03-19T04:41:38.734Z,49.67
2023-03-19T04:44:25.411Z,47.97
2023-03-19T04:46:53.919Z,44.60
2023-03-19T04:49:22.897Z,44.58
2023-03-19T04:51:52.346Z,45.75
2023-03-19T04:54:21.468Z,44.20
2023-03-19T04:56:49.663Z,44.40
2023-03-19T04:59:17.875Z,37.55
2023-03-19T05:01:46.037Z,45.30
2023-03-19T05:04:16.153Z,40.70
2023-03-19T05:06:44.457Z,45.45
2023-03-19T05:09:12.207Z,46.60
2023-03-19T05:11:40.506Z,44.88
2023-03-19T05:14:16.596Z,41.58
2023-03-19T05:17:11.175Z,40.25
2023-03-19T05:20:09.739Z,49.90
2023-03-19T05:22:39.725Z,47.03
2023-03-19T05:25:08.945Z,52.25
2023-03-19T05:27:40.210Z,46.28
2023-03-19T05:30:11.132Z,46.60
2023-03-19T05:32:42.297Z,45.70
2023-03-19T05:35:17.626Z,43.50
2023-03-19T05:37:46.077Z,45.42
2023-03-19T05:40:13.936Z,42.17
2023-03-19T05:42:46.283Z,49.15
2023-03-19T05:45:17.429Z,47.50
2023-03-19T05:47:50.620Z,48.35
2023-03-19T05:50:20.429Z,47.83
2023-03-19T05:53:06.777Z,50.25
2023-03-19T05:55:36.876Z,47.25
2023-03-19T05:58:08.185Z,48.35
2023-03-19T06:00:36.842Z,50.83
2023-03-19T06:03:05.554Z,46.35
2023-03-19T06:05:52.158Z,59.08
2023-03-19T06:08:33.093Z,46.63
2023-03-19T06:11:21.098Z,49.45
2023-03-19T06:14:01.876Z,48.10
2023-03-19T06:16:32.009Z,47.28
2023-03-19T06:19:00.991Z,44.20
2023-03-19T06:21:29.739Z,42.78
2023-03-19T06:24:01.178Z,55.03
2023-03-19T06:26:35.030Z,48.55
2023-03-19T06:29:07.740Z,49.28
2023-03-19T06:31:36.385Z,54.15
2023-03-19T06:34:12.680Z,45.15
2023-03-19T06:36:42.778Z,46.00
2023-03-19T06:39:13.813Z,45.78
2023-03-19T06:41:42.364Z,48.28
2023-03-19T06:44:17.572Z,47.03
2023-03-19T06:46:45.572Z,51.22
2023-03-19T06:49:13.182Z,48.55
2023-03-19T06:51:40.929Z,52.42
2023-03-19T06:54:08.917Z,43.58
2023-03-19T06:56:36.692Z,43.03
2023-03-19T06:59:05.138Z,45.53
2023-03-19T07:01:32.981Z,42.92
2023-03-19T07:04:01.039Z,37.92
2023-03-19T07:06:30.177Z,37.80
2023-03-19T07:08:58.553Z,48.15
2023-03-19T07:11:26.423Z,41.30
2023-03-19T07:13:54.697Z,37.72
2023-03-19T07:16:23.477Z,39.53
2023-03-19T07:18:51.132Z,35.22
2023-03-19T07:21:19.262Z,42.92
2023-03-19T07:23:47.387Z,40.92
2023-03-19T07:26:15.482Z,37.47
2023-03-19T07:28:43.713Z,40.15
2023-03-19T07:31:11.882Z,37.60
2023-03-19T07:33:40.451Z,34.50
2023-03-19T07:36:08.896Z,35.05
2023-03-19T07:38:36.576Z,39.88
2023-03-19T07:41:04.483Z,34.90
2023-03-19T07:43:32.444Z,34.30
2023-03-19T07:46:01.614Z,32.78
2023-03-19T07:48:29.737Z,38.28
2023-03-19T07:50:57.948Z,33.15
2023-03-19T07:53:26.177Z,28.83
2023-03-19T07:55:53.835Z,37.28
2023-03-19T07:58:21.677Z,31.33
2023-03-19T08:00:49.886Z,33.80
2023-03-19T08:03:18.484Z,33.28
2023-03-19T08:05:50.136Z,37.15
2023-03-19T08:08:18.139Z,29.33
2023-03-19T08:10:47.532Z,35.45
2023-03-19T08:13:15.208Z,29.10
2023-03-19T08:15:42.900Z,27.50
2023-03-19T08:18:11.601Z,32.80
2023-03-19T08:20:39.199Z,31.23
2023-03-19T08:23:07.422Z,28.48
2023-03-19T08:25:35.037Z,25.67
2023-03-19T08:28:03.105Z,31.02
2023-03-19T08:30:32.271Z,32.03
2023-03-19T08:33:00.188Z,32.60
2023-03-19T08:35:28.265Z,28.98
2023-03-19T08:37:57.030Z,33.67
2023-03-19T08:40:25.722Z,26.70
2023-03-19T08:42:54.622Z,28.27
2023-03-19T08:45:23.880Z,27.55
2023-03-19T08:47:52.057Z,32.58
2023-03-19T08:50:19.923Z,25.67
2023-03-19T08:52:48.579Z,29.13
2023-03-19T08:55:17.285Z,24.55
2023-03-19T08:57:45.052Z,26.30
2023-03-19T09:00:13.503Z,26.30
2023-03-19T09:02:41.230Z,30.52
2023-03-19T09:05:09.323Z,25.70
2023-03-19T09:07:37.396Z,29.33
2023-03-19T09:10:05.800Z,24.85
2023-03-19T09:12:33.979Z,18.92
2023-03-19T09:15:02.124Z,22.15
2023-03-19T09:17:29.841Z,25.63
2023-03-19T09:19:58.890Z,20.80
2023-03-19T09:22:26.599Z,29.58
2023-03-19T09:24:54.209Z,21.75
2023-03-19T09:27:22.285Z,24.40
2023-03-19T09:29:50.682Z,21.67
2023-03-19T09:32:18.340Z,22.45
2023-03-19T09:34:47.788Z,21.45
2023-03-19T09:37:15.864Z,23.05
2023-03-19T09:39:44.577Z,24.88
2023-03-19T09:42:31.078Z,21.90
2023-03-19T09:44:59.041Z,21.05
2023-03-19T09:47:35.443Z,23.08
2023-03-19T09:50:16.420Z,28.48
2023-03-19T09:53:23.101Z,23.38
2023-03-19T09:55:54.519Z,17.58
2023-03-19T09:58:30.921Z,20.25
2023-03-19T10:01:01.150Z,19.35
2023-03-19T10:03:51.482Z,18.58
2023-03-19T10:06:26.874Z,20.92
2023-03-19T10:09:20.101Z,17.00
2023-03-19T10:11:57.852Z,19.50
2023-03-19T10:14:37.896Z,18.58
2023-03-19T10:17:12.800Z,21.70
2023-03-19T10:20:16.696Z,20.13
2023-03-19T10:22:55.553Z,20.25
2023-03-19T10:25:27.846Z,16.42
2023-03-19T10:28:01.646Z,20.10
2023-03-19T10:33:24.916Z,17.52
2023-03-19T10:36:06.440Z,17.73
2023-03-19T10:38:40.662Z,16.25
2023-03-19T10:41:23.865Z,16.02
2023-03-19T10:44:04.388Z,16.17
2023-03-19T10:46:40.651Z,19.30
2023-03-19T10:49:16.533Z,19.10
2023-03-19T10:51:46.307Z,16.83
2023-03-19T10:54:24.949Z,18.35
2023-03-19T10:56:57.489Z,18.92
2023-03-19T10:59:30.984Z,18.00
2023-03-19T11:04:29.859Z,16.13
2023-03-19T11:07:09.804Z,15.27
2023-03-19T11:09:41.702Z,15.27
2023-03-19T11:12:29.585Z,14.38
2023-03-19T11:14:58.886Z,16.38
2023-03-19T11:17:57.460Z,15.55
2023-03-19T11:20:35.581Z,16.67
2023-03-19T11:23:09.427Z,17.42
2023-03-19T11:25:38.915Z,14.20
2023-03-19T11:28:09.589Z,14.65
2023-03-19T11:30:44.118Z,15.70
2023-03-19T11:33:31.800Z,16.92
2023-03-19T11:36:14.111Z,16.33
2023-03-19T11:39:19.847Z,17.48
2023-03-19T11:42:21.943Z,12.57
2023-03-19T11:45:20.767Z,15.85
2023-03-19T11:48:20.321Z,14.63
2023-03-19T11:50:59.268Z,16.05
2023-03-19T11:53:32.599Z,17.40
2023-03-19T11:56:52.946Z,13.80
2023-03-19T11:59:36.671Z,15.85
2023-03-19T12:05:02.955Z,17.88
2023-03-19T12:07:43.396Z,14.25
2023-03-19T12:10:30.440Z,16.35
2023-03-19T12:13:19.741Z,15.38
2023-03-19T12:16:06.018Z,23.52
2023-03-19T12:18:52.455Z,19.42
2023-03-19T12:21:29.888Z,21.25
2023-03-19T12:24:00.697Z,22.80
2023-03-19T12:26:50.985Z,19.83
2023-03-19T12:29:31.222Z,19.92
2023-03-19T12:32:10.276Z,23.05
2023-03-19T12:34:46.599Z,26.92
2023-03-19T12:37:35.654Z,27.08
2023-03-19T12:40:35.022Z,22.65
2023-03-19T12:43:07.930Z,24.10
2023-03-19T12:45:51.325Z,27.37
2023-03-19T12:48:41.720Z,28.35
2023-03-19T12:51:13.899Z,25.40
2023-03-19T12:53:56.459Z,30.25
2023-03-19T12:56:59.950Z,27.60
2023-03-19T12:59:59.961Z,29.42
2023-03-19T13:02:54.568Z,28.33
2023-03-19T13:06:08.877Z,29.42
2023-03-19T13:09:05.047Z,27.75
2023-03-19T13:11:39.387Z,24.77
2023-03-19T13:14:26.832Z,26.67
2023-03-19T13:17:05.213Z,24.35
2023-03-19T13:19:48.205Z,27.70
2023-03-19T13:22:22.216Z,25.40
2023-03-19T13:24:52.313Z,24.63
2023-03-19T13:27:36.422Z,25.58
2023-03-19T13:30:17.885Z,25.98
2023-03-19T13:33:02.373Z,23.27
2023-03-19T13:35:40.809Z,24.30
2023-03-19T13:38:15.507Z,25.98
2023-03-19T13:41:01.275Z,24.27
2023-03-19T13:43:29.583Z,23.65
2023-03-19T13:46:12.372Z,26.80
2023-03-19T13:48:45.798Z,26.35
2023-03-19T13:51:20.399Z,30.17
2023-03-19T13:53:54.818Z,30.20
2023-03-19T13:56:29.970Z,25.33
2023-03-19T13:59:24.355Z,30.73
2023-03-19T14:01:52.805Z,25.67
2023-03-19T14:04:35.303Z,27.48
2023-03-19T14:07:19.304Z,25.02
2023-03-19T14:10:00.183Z,25.20
2023-03-19T14:12:39.977Z,24.48
2023-03-19T14:15:11.332Z,25.55
2023-03-19T14:17:54.985Z,25.90
2023-03-19T14:20:37.556Z,25.38
2023-03-19T14:23:08.921Z,30.52
2023-03-19T14:26:07.325Z,28.58
2023-03-19T14:29:13.529Z,28.83
2023-03-19T14:31:53.691Z,29.52
2023-03-19T14:34:22.428Z,32.45
2023-03-19T14:37:17.761Z,32.15
2023-03-19T14:39:53.022Z,29.17
2023-03-19T14:42:27.273Z,34.55
2023-03-19T14:45:14.535Z,29.48
2023-03-19T14:48:21.060Z,31.80
2023-03-19T14:51:07.350Z,38.20
2023-03-19T14:53:46.855Z,27.85
2023-03-19T14:56:24.372Z,28.52
2023-03-19T14:58:57.010Z,28.92
2023-03-19T15:01:30.077Z,26.35
2023-03-19T15:04:04.881Z,27.60
2023-03-19T15:06:36.508Z,28.27
2023-03-19T15:09:16.253Z,29.15
2023-03-19T15:11:43.883Z,29.73
2023-03-19T15:14:33.661Z,28.52
2023-03-19T15:17:04.860Z,28.17
2023-03-19T15:19:35.956Z,24.90
2023-03-19T15:22:17.093Z,26.92
2023-03-19T15:24:45.050Z,25.85
2023-03-19T15:27:24.596Z,27.13
2023-03-19T15:29:53.976Z,28.50
2023-03-19T15:33:09.021Z,27.40
2023-03-19T15:35:34.037Z,25.85
2023-03-19T15:38:09.375Z,30.25
2023-03-19T15:40:39.160Z,32.13
2023-03-19T15:43:11.226Z,31.55
2023-03-19T15:45:42.755Z,31.88
2023-03-19T15:48:25.637Z,30.40
2023-03-19T15:51:01.594Z,29.92
2023-03-19T15:53:33.584Z,26.63
2023-03-19T15:56:03.642Z,26.42
2023-03-19T15:58:40.148Z,28.70
2023-03-19T16:01:10.807Z,28.80
2023-03-19T16:03:41.819Z,27.45
2023-03-19T16:06:29.413Z,32.45
2023-03-19T16:09:15.660Z,29.92
2023-03-19T16:11:46.150Z,30.13
2023-03-19T16:14:14.227Z,22.77
2023-03-19T16:16:45.343Z,24.05
2023-03-19T16:19:32.777Z,19.83
2023-03-19T16:22:02.207Z,22.65
2023-03-19T16:24:43.128Z,23.77
2023-03-19T16:27:14.205Z,22.08
2023-03-19T16:29:46.561Z,32.05
2023-03-19T16:32:22.961Z,28.92
2023-03-19T16:34:56.046Z,23.73
2023-03-19T16:37:56.441Z,23.70
2023-03-19T16:40:25.239Z,22.15
2023-03-19T16:42:56.247Z,24.25
2023-03-19T16:45:29.637Z,21.92
2023-03-19T16:48:01.002Z,20.27
2023-03-19T16:50:32.095Z,28.80
2023-03-19T16:53:02.280Z,28.25
2023-03-19T16:55:37.027Z,25.35
2023-03-19T16:58:16.267Z,21.95
2023-03-19T17:00:45.318Z,24.83
2023-03-19T17:03:15.891Z,26.10
2023-03-19T17:05:46.111Z,29.50
2023-03-19T17:08:15.014Z,28.33
2023-03-19T17:10:49.281Z,38.47
2023-03-19T17:13:28.128Z,29.50
2023-03-19T17:16:02.841Z,35.15
2023-03-19T17:18:35.276Z,45.28
2023-03-19T17:21:11.239Z,35.17
2023-03-19T17:23:39.336Z,40.45
2023-03-19T17:26:19.897Z,36.03
2023-03-19T17:28:48.287Z,32.63
2023-03-19T17:31:25.733Z,26.48
2023-03-19T17:34:01.395Z,22.27
2023-03-19T17:36:29.478Z,24.83
2023-03-19T17:38:57.551Z,27.40
2023-03-19T17:41:26.042Z,25.35
2023-03-19T17:43:54.743Z,33.17
2023-03-19T17:46:25.294Z,27.67
2023-03-19T17:48:54.095Z,27.85
2023-03-19T17:51:23.935Z,28.58
2023-03-19T17:53:54.350Z,23.75
2023-03-19T17:56:25.631Z,27.52
2023-03-19T17:58:54.672Z,29.05
2023-03-19T18:01:27.345Z,24.55
2023-03-19T18:03:57.977Z,25.20
2023-03-19T18:06:31.955Z,41.42
2023-03-19T18:08:59.630Z,30.67
2023-03-19T18:11:27.837Z,28.27
2023-03-19T18:13:56.021Z,32.47
2023-03-19T18:16:29.173Z,33.88
2023-03-19T18:19:01.245Z,30.65
2023-03-19T18:21:31.146Z,30.52
2023-03-19T18:23:58.943Z,33.30
2023-03-19T18:26:27.141Z,33.80
2023-03-19T18:28:55.592Z,30.40
2023-03-19T18:31:25.892Z,38.63
2023-03-19T18:34:02.997Z,37.17
2023-03-19T18:36:32.988Z,31.85
2023-03-19T18:39:00.759Z,32.88
2023-03-19T18:41:29.686Z,36.25
2023-03-19T18:44:08.144Z,33.45
2023-03-19T18:46:37.797Z,30.80
2023-03-19T18:49:24.851Z,31.73
2023-03-19T18:52:08.664Z,33.33
2023-03-19T18:54:36.835Z,33.80
2023-03-19T18:57:05.871Z,33.80
2023-03-19T18:59:34.065Z,29.85
2023-03-19T19:02:27.003Z,31.50
2023-03-19T19:04:55.032Z,33.83
2023-03-19T19:07:22.678Z,33.65
2023-03-19T19:09:51.592Z,33.53
2023-03-19T19:12:20.012Z,35.20
2023-03-19T19:14:48.724Z,32.63
2023-03-19T19:17:19.843Z,36.47
2023-03-19T19:19:48.336Z,37.45
2023-03-19T19:22:18.172Z,35.75
2023-03-19T19:24:46.659Z,34.28
2023-03-19T19:27:20.967Z,30.10
2023-03-19T19:29:50.173Z,28.40
2023-03-19T19:32:26.475Z,32.55
2023-03-19T19:34:54.690Z,37.33
2023-03-19T19:37:23.683Z,34.88
2023-03-19T19:39:53.219Z,34.03
2023-03-19T19:42:23.466Z,37.47
2023-03-19T19:44:54.270Z,38.33
2023-03-19T19:47:22.122Z,36.47
2023-03-19T19:49:50.950Z,32.85
2023-03-19T19:52:19.873Z,33.55
2023-03-19T19:54:48.445Z,34.22
2023-03-19T19:57:27.209Z,31.80
2023-03-19T19:59:56.010Z,34.28
2023-03-19T20:02:28.823Z,37.05
2023-03-19T20:04:59.099Z,38.30
2023-03-19T20:07:27.427Z,40.25
2023-03-19T20:09:55.141Z,46.15
2023-03-19T20:12:31.147Z,45.55
2023-03-19T20:15:00.463Z,40.60
2023-03-19T20:17:29.042Z,45.60
2023-03-19T20:19:57.559Z,37.47
2023-03-19T20:22:25.722Z,37.45
2023-03-19T20:24:53.827Z,38.45
2023-03-19T20:27:28.867Z,34.88
2023-03-19T20:29:56.936Z,37.05
2023-03-19T20:32:32.797Z,38.85
2023-03-19T20:35:02.036Z,40.50
2023-03-19T20:37:31.150Z,39.92
2023-03-19T20:39:59.705Z,41.22
2023-03-19T20:42:32.094Z,37.47
2023-03-19T20:45:01.529Z,38.13
2023-03-19T20:47:29.424Z,35.67
2023-03-19T20:49:57.410Z,38.30
2023-03-19T20:52:26.096Z,43.20
2023-03-19T20:54:54.837Z,39.22
2023-03-19T20:57:29.313Z,39.53
2023-03-19T21:00:02.104Z,38.63
2023-03-19T21:02:29.965Z,37.00
2023-03-19T21:04:58.727Z,42.28
2023-03-19T21:07:34.665Z,37.80
2023-03-19T21:10:07.891Z,45.92
2023-03-19T21:12:36.579Z,42.38
2023-03-19T21:15:04.458Z,43.33
2023-03-19T21:17:32.153Z,38.30
2023-03-19T21:20:00.758Z,37.55
2023-03-19T21:22:30.782Z,47.00
2023-03-19T21:25:06.171Z,40.55
2023-03-19T21:27:36.980Z,38.47
2023-03-19T21:30:05.948Z,38.17
2023-03-19T21:32:33.693Z,39.05
2023-03-19T21:35:01.814Z,39.72
2023-03-19T21:37:29.816Z,40.33
2023-03-19T21:39:57.968Z,39.88
2023-03-19T21:42:26.892Z,37.75
2023-03-19T21:44:59.598Z,41.20
2023-03-19T21:47:27.298Z,42.22
2023-03-19T21:49:56.504Z,44.15
2023-03-19T21:52:24.190Z,40.80
2023-03-19T21:54:52.396Z,39.45
2023-03-19T21:57:20.780Z,42.00
2023-03-19T21:59:48.925Z,37.83
2023-03-19T22:02:23.348Z,44.30
2023-03-19T22:04:51.389Z,41.28
2023-03-19T22:07:19.105Z,40.38
2023-03-19T22:09:46.760Z,39.50
2023-03-19T22:12:26.085Z,38.88
2023-03-19T22:14:54.820Z,38.30
2023-03-19T22:17:26.160Z,40.53
2023-03-19T22:19:53.812Z,42.45
2023-03-19T22:22:21.939Z,41.33
2023-03-19T22:24:49.734Z,40.97
2023-03-19T22:27:17.884Z,42.35
2023-03-19T22:29:47.038Z,41.15
2023-03-19T22:32:18.068Z,51.17
2023-03-19T22:34:45.938Z,44.83
2023-03-19T22:37:29.258Z,46.88
2023-03-19T22:39:57.525Z,44.97
2023-03-19T22:42:26.880Z,43.50
2023-03-19T22:44:54.868Z,45.20
2023-03-19T22:47:26.199Z,45.75
2023-03-19T22:49:53.971Z,44.35
2023-03-19T22:52:22.363Z,43.45
2023-03-19T22:54:53.100Z,44.42
2023-03-19T22:57:20.909Z,40.65
2023-03-19T22:59:49.050Z,43.72
2023-03-19T23:02:18.216Z,51.92
2023-03-19T23:04:46.980Z,47.10
2023-03-19T23:07:15.586Z,39.85
2023-03-19T23:09:43.582Z,40.58
2023-03-19T23:12:13.741Z,39.38
2023-03-19T23:14:41.570Z,45.70
2023-03-19T23:17:19.761Z,40.00
2023-03-19T23:19:48.513Z,38.92
2023-03-19T23:22:17.364Z,45.15
2023-03-19T23:24:45.514Z,39.72
2023-03-19T23:27:25.206Z,46.65
2023-03-19T23:29:53.702Z,40.97
2023-03-19T23:32:22.024Z,48.47
2023-03-19T23:34:59.563Z,41.80
2023-03-19T23:37:29.200Z,41.55
2023-03-19T23:39:57.965Z,44.20
2023-03-19T23:42:29.698Z,44.67
2023-03-19T23:45:03.677Z,44.85
2023-03-19T23:47:31.829Z,52.47
2023-03-19T23:49:59.984Z,44.55
2023-03-19T23:52:27.752Z,47.88
2023-03-19T23:54:57.053Z,51.83
2023-03-19T23:57:26.977Z,47.58
2023-03-19T23:59:55.848Z,40.95
